Warrior Run, Pennsylvania
Current Conditions -  °F | °C
As of 4:54 AM on Friday 19 Dec 2014 (Local Time) from KAVP Reporting Station
Overcast Overcast  
Wind Chill: 23°   Ceiling: 2000
Heat Index: 32°   Visibility: 8mi
Dew Point: 27°   Wind: 13mph
Humidity: 82%   Direction: 320°NW
Pressure: 29.99"   Gusts: NA
Location:  41.1921°N, 75.9213°W
Report Text: KAVP 190954Z AUTO 32011KT 8SM FEW015 BKN020 OVC028 00/M03 A2999 RMK AO2 UPB0855E0856B19E36SNE0855B0856E19B25E30B32E35B44E54 SLP161 P0000 T00001028
Loading
Personal Weather Stations






























Interactive Weather Map New forecast layout! Learn more

10-Day Weather Forecast

Advertisements
Track Severe Weather on mobile